Terminal Aerodrome Forecast
Issued by NWS Charleston, WV

Home | Current Version | Previous Version | Text Only | Print | Product List | Glossary On
Versions: 1 2 3 4 5 6 7 8 9 10 11 12 13 14 15 16 17 18 19 20 21 22 23 24 25 26 27 28
400
FTUS41 KRLX 212339
TAFPKB
TAF
KPKB 212339Z 2200/2224 12005KT P6SM BKN045 BKN080 BKN090
     FM220600 00000KT 5SM BR SCT002
     FM220730 00000KT 1/4SM FG VV001
     FM221230 00000KT 3SM BR BKN002
     FM221330 00000KT P6SM FEW050=

USA.gov is the U.S. government's official web portal to all federal, state and local government web resources and services.